Time;durP1;ratioP1;P1;durP2;ratioP2;P2;SDS_P1;SDS_P2;PMS_P1;PMS_P2;Temp;Humidity;BMP_temperature;BMP_pressure;BME280_temperature;BME280_humidity;BME280_pressure;Samples;Min_cycle;Max_cycle;Signal;HPM_P1;HPM_P2
2023/09/05 00:00:05;;;;;;;0.70;0.70;;;12.50;99.90;;;;;;5147066;27;20430;-73
2023/09/05 00:02:31;;;;;;;0.52;0.45;;;12.40;99.90;;;;;;5154432;27;20089;-74
2023/09/05 00:04:57;;;;;;;3.47;0.45;;;12.30;99.90;;;;;;5152209;27;20525;-74
2023/09/05 00:07:23;;;;;;;0.57;0.52;;;12.30;99.90;;;;;;5143876;27;20039;-74
2023/09/05 00:09:49;;;;;;;0.75;0.43;;;12.30;99.90;;;;;;5145868;27;20051;-74
2023/09/05 00:12:15;;;;;;;4.70;1.65;;;12.40;99.90;;;;;;5155624;27;20043;-74
2023/09/05 00:14:41;;;;;;;0.63;0.47;;;12.60;99.90;;;;;;5150169;27;20057;-74
2023/09/05 00:17:07;;;;;;;2.63;1.48;;;12.50;99.90;;;;;;5147542;27;20035;-74
2023/09/05 00:19:33;;;;;;;0.68;0.68;;;12.50;99.90;;;;;;5139138;27;20039;-73
2023/09/05 00:21:58;;;;;;;4.32;0.80;;;12.50;99.90;;;;;;5153082;27;20054;-74
2023/09/05 00:24:31;;;;;;;1.00;0.90;;;12.40;99.90;;;;;;5143840;27;20517;-74
2023/09/05 00:27:02;;;;;;;0.08;0.08;;;12.40;99.90;;;;;;5153155;27;20042;-74
2023/09/05 00:29:30;;;;;;;2.85;0.57;;;12.40;99.90;;;;;;5156004;27;20039;-74
2023/09/05 00:32:03;;;;;;;0.50;0.50;;;12.30;99.90;;;;;;5155280;27;20043;-74
2023/09/05 00:34:31;;;;;;;0.63;0.20;;;12.30;99.90;;;;;;5143767;27;20067;-74
2023/09/05 00:36:58;;;;;;;0.68;0.32;;;12.30;99.90;;;;;;5143481;27;20129;-74
2023/09/05 00:39:28;;;;;;;0.17;0.17;;;12.30;99.90;;;;;;5155108;27;20049;-74
2023/09/05 00:41:56;;;;;;;0.20;0.20;;;12.30;99.90;;;;;;5155035;27;20473;-74
2023/09/05 00:44:25;;;;;;;1.02;0.43;;;12.20;99.90;;;;;;5144649;27;20077;-73
2023/09/05 00:46:58;;;;;;;0.35;0.30;;;12.20;99.90;;;;;;5142597;27;20043;-74
2023/09/05 00:49:28;;;;;;;17.85;0.50;;;12.20;99.90;;;;;;5145809;27;20047;-74
2023/09/05 00:51:58;;;;;;;0.40;0.40;;;12.20;99.90;;;;;;5149730;27;20131;-74
2023/09/05 00:54:24;;;;;;;1.27;0.95;;;12.30;99.90;;;;;;5144072;27;20031;-74
2023/09/05 00:56:52;;;;;;;0.45;0.22;;;12.20;99.90;;;;;;5146422;27;20039;-74
2023/09/05 00:59:19;;;;;;;3.85;0.82;;;12.30;99.90;;;;;;5138798;27;20075;-73
2023/09/05 01:01:44;;;;;;;0.40;0.38;;;12.20;99.90;;;;;;5153951;27;20533;-74
2023/09/05 01:04:10;;;;;;;0.73;0.35;;;12.10;99.90;;;;;;5154785;27;20114;-74
2023/09/05 01:06:58;;;;;;;0.20;0.20;;;12.00;99.90;;;;;;5146266;27;20042;-75
2023/09/05 01:09:29;;;;;;;0.52;0.45;;;11.90;99.90;;;;;;5146597;27;20034;-73
2023/09/05 01:11:56;;;;;;;0.88;0.45;;;12.20;99.90;;;;;;5144035;27;20497;-74
2023/09/05 01:14:22;;;;;;;2.65;1.38;;;12.10;99.90;;;;;;5143254;27;20039;-74
2023/09/05 01:16:47;;;;;;;0.65;0.63;;;12.00;99.90;;;;;;5143914;27;20050;-74
2023/09/05 01:19:15;;;;;;;1.30;0.70;;;12.00;99.90;;;;;;5146680;27;20035;-74
2023/09/05 01:22:23;;;;;;;0.47;0.35;;;11.90;99.90;;;;;;5148286;27;20042;-74
2023/09/05 01:24:49;;;;;;;0.00;0.00;;;12.00;99.90;;;;;;5151847;27;20067;-74
2023/09/05 01:27:17;;;;;;;1.33;0.90;;;12.00;99.90;;;;;;5142776;27;20168;-74
2023/09/05 01:29:44;;;;;;;1.05;0.65;;;12.00;99.90;;;;;;5150020;27;20053;-73
2023/09/05 01:32:10;;;;;;;0.75;0.63;;;12.00;99.90;;;;;;5154625;27;20039;-74
2023/09/05 01:34:36;;;;;;;0.30;0.20;;;12.00;99.90;;;;;;5154464;27;20049;-74
2023/09/05 01:37:02;;;;;;;0.43;0.25;;;11.90;99.90;;;;;;5154663;27;20114;-74
2023/09/05 01:39:27;;;;;;;1.92;0.68;;;11.90;99.90;;;;;;5142805;27;20459;-74
2023/09/05 01:41:53;;;;;;;0.63;0.47;;;12.00;99.90;;;;;;5149052;27;20041;-74
2023/09/05 01:44:19;;;;;;;1.23;0.77;;;12.00;99.90;;;;;;5153479;27;20123;-75
2023/09/05 01:46:45;;;;;;;0.43;0.32;;;11.90;99.90;;;;;;5142871;27;20406;-74
2023/09/05 01:49:10;;;;;;;2.92;1.15;;;11.90;99.90;;;;;;5150544;27;20477;-74
2023/09/05 01:51:37;;;;;;;1.27;0.50;;;12.00;99.90;;;;;;5151122;27;20043;-74
2023/09/05 01:54:03;;;;;;;1.90;0.57;;;12.00;99.90;;;;;;5154679;27;20039;-74
2023/09/05 01:56:28;;;;;;;1.00;1.00;;;11.90;99.90;;;;;;5144868;27;20049;-74
2023/09/05 01:58:54;;;;;;;0.40;0.40;;;11.90;99.90;;;;;;5146836;27;20035;-74
2023/09/05 02:01:20;;;;;;;1.02;0.73;;;11.80;99.90;;;;;;5151766;27;20481;-74
2023/09/05 02:03:46;;;;;;;0.63;0.63;;;11.80;99.90;;;;;;5156304;27;20061;-74
2023/09/05 02:06:15;;;;;;;0.95;0.80;;;11.80;99.90;;;;;;5146175;27;20067;-74
2023/09/05 02:08:41;;;;;;;2.25;2.05;;;11.80;99.90;;;;;;5147429;27;20086;-74
2023/09/05 02:11:09;;;;;;;1.48;0.60;;;11.80;99.90;;;;;;5149731;27;20039;-74
2023/09/05 02:13:35;;;;;;;1.33;0.90;;;11.80;99.90;;;;;;5158388;27;20087;-74
2023/09/05 02:16:01;;;;;;;0.70;0.63;;;11.80;99.90;;;;;;5149239;27;20039;-74
2023/09/05 02:18:27;;;;;;;0.63;0.40;;;11.80;99.90;;;;;;5149452;27;20046;-74
2023/09/05 02:20:58;;;;;;;2.05;0.65;;;11.80;99.90;;;;;;5138804;27;20039;-74
2023/09/05 02:23:24;;;;;;;0.52;0.52;;;11.80;99.90;;;;;;5158251;27;20046;-73
2023/09/05 02:26:00;;;;;;;9.25;2.30;;;11.80;99.90;;;;;;5149223;27;20046;-74
2023/09/05 02:28:27;;;;;;;2.83;1.65;;;11.80;99.90;;;;;;5135930;27;20035;-74
2023/09/05 02:30:53;;;;;;;0.88;0.82;;;11.80;99.90;;;;;;5153720;27;20034;-74
2023/09/05 02:33:19;;;;;;;1.05;0.95;;;11.80;99.90;;;;;;5154536;27;20402;-74
2023/09/05 02:35:45;;;;;;;1.63;1.05;;;11.70;99.90;;;;;;5145641;27;20039;-74
2023/09/05 02:38:13;;;;;;;0.32;0.32;;;11.70;99.90;;;;;;5146874;27;20045;-73
2023/09/05 02:40:43;;;;;;;1.02;0.85;;;11.70;99.90;;;;;;5149052;27;20411;-74
2023/09/05 02:43:08;;;;;;;1.13;1.02;;;11.70;99.90;;;;;;5157338;27;20103;-73
2023/09/05 02:45:34;;;;;;;0.45;0.38;;;11.70;99.90;;;;;;5145586;27;20494;-73
2023/09/05 02:47:59;;;;;;;0.63;0.63;;;11.80;99.90;;;;;;5145284;27;20043;-73
2023/09/05 02:50:25;;;;;;;0.52;0.38;;;11.90;99.90;;;;;;5153888;27;20039;-73
2023/09/05 02:52:51;;;;;;;1.73;0.93;;;11.90;99.90;;;;;;5152265;27;20438;-73
2023/09/05 02:55:16;;;;;;;0.75;0.57;;;11.90;99.90;;;;;;5148883;27;20053;-73
2023/09/05 02:57:42;;;;;;;0.85;0.30;;;12.00;99.90;;;;;;5145630;27;20390;-73
2023/09/05 03:00:08;;;;;;;9.05;3.25;;;11.90;99.90;;;;;;5145467;27;20138;-73
2023/09/05 03:02:35;;;;;;;0.40;0.32;;;12.10;99.90;;;;;;5154633;27;20400;-73
2023/09/05 03:05:01;;;;;;;1.02;0.63;;;12.10;99.90;;;;;;5148394;27;20035;-73
2023/09/05 03:07:26;;;;;;;0.68;0.68;;;12.00;99.90;;;;;;5148210;27;20027;-73
2023/09/05 03:09:52;;;;;;;1.05;0.93;;;12.00;99.90;;;;;;5147591;27;20060;-72
2023/09/05 03:12:18;;;;;;;1.17;0.77;;;11.90;99.90;;;;;;5152190;27;20394;-73
2023/09/05 03:14:45;;;;;;;1.23;0.55;;;11.90;99.90;;;;;;5148283;27;20406;-73
2023/09/05 03:17:11;;;;;;;0.35;0.35;;;11.90;99.90;;;;;;5142728;27;20500;-73
2023/09/05 03:19:38;;;;;;;0.60;0.60;;;11.90;99.90;;;;;;5153204;27;20127;-73
2023/09/05 03:22:05;;;;;;;0.73;0.60;;;11.90;99.90;;;;;;5156532;27;20049;-73
2023/09/05 03:24:31;;;;;;;0.50;0.50;;;11.80;99.90;;;;;;5148407;27;20086;-73
2023/09/05 03:26:56;;;;;;;1.77;1.27;;;11.80;99.90;;;;;;5147361;27;20043;-73
2023/09/05 03:29:22;;;;;;;0.68;0.52;;;11.80;99.90;;;;;;5152541;27;20098;-73
2023/09/05 03:31:47;;;;;;;1.40;1.15;;;11.80;99.90;;;;;;5153599;27;20038;-73
2023/09/05 03:34:13;;;;;;;1.70;1.05;;;12.70;99.90;;;;;;5147645;27;20071;-73
2023/09/05 03:36:38;;;;;;;1.08;0.85;;;11.70;99.90;;;;;;5150897;27;20481;-73
2023/09/05 03:39:04;;;;;;;0.98;0.90;;;11.70;99.90;;;;;;5156349;27;20043;-73
2023/09/05 03:41:30;;;;;;;0.40;0.40;;;11.70;99.90;;;;;;5148016;27;20046;-73
2023/09/05 03:43:56;;;;;;;2.72;1.65;;;11.90;99.90;;;;;;5149412;27;20533;-73
2023/09/05 03:46:22;;;;;;;2.63;1.45;;;11.90;99.90;;;;;;5146313;27;20046;-73
2023/09/05 03:48:49;;;;;;;3.30;0.75;;;11.90;99.90;;;;;;5142582;27;20453;-73
2023/09/05 03:51:15;;;;;;;0.57;0.57;;;11.80;99.90;;;;;;5144336;27;20054;-73
2023/09/05 03:53:40;;;;;;;1.05;1.00;;;11.80;99.90;;;;;;5152758;27;20405;-73
2023/09/05 03:56:06;;;;;;;0.95;0.85;;;11.90;99.90;;;;;;5144269;27;20035;-73
2023/09/05 03:58:32;;;;;;;1.95;0.85;;;11.90;99.90;;;;;;5145320;27;20486;-73
2023/09/05 04:01:02;;;;;;;1.05;0.85;;;11.80;99.90;;;;;;5147510;27;20031;-74
2023/09/05 04:03:27;;;;;;;0.25;0.25;;;11.80;99.90;;;;;;5155618;27;20041;-74
2023/09/05 04:05:53;;;;;;;2.28;0.95;;;11.80;99.90;;;;;;5137579;27;20039;-74
2023/09/05 04:08:19;;;;;;;2.38;1.25;;;11.80;99.90;;;;;;5149444;27;20046;-73
2023/09/05 04:10:44;;;;;;;2.38;0.55;;;11.70;99.90;;;;;;5145289;27;20047;-74
2023/09/05 04:13:10;;;;;;;1.40;0.52;;;11.70;99.90;;;;;;5155830;27;20074;-74
2023/09/05 04:15:36;;;;;;;2.42;1.05;;;11.60;99.90;;;;;;5147246;27;20046;-74
2023/09/05 04:18:02;;;;;;;0.65;0.63;;;11.60;99.90;;;;;;5143852;27;20039;-73
2023/09/05 04:20:28;;;;;;;0.43;0.43;;;11.60;99.90;;;;;;5143564;27;20443;-74
2023/09/05 04:22:53;;;;;;;0.35;0.35;;;11.60;99.90;;;;;;5152578;27;20076;-73
2023/09/05 04:25:19;;;;;;;0.50;0.50;;;11.50;99.90;;;;;;5154368;27;20054;-74
2023/09/05 04:27:45;;;;;;;5.38;1.95;;;11.50;99.90;;;;;;5154993;27;20095;-74
2023/09/05 04:30:12;;;;;;;0.73;0.65;;;11.40;99.90;;;;;;5155311;27;20496;-74
2023/09/05 04:32:38;;;;;;;0.73;0.65;;;11.40;99.90;;;;;;5155404;27;20121;-74
2023/09/05 04:35:05;;;;;;;1.13;1.02;;;11.40;99.90;;;;;;5154469;27;20172;-74
2023/09/05 04:37:31;;;;;;;2.30;0.82;;;11.40;99.90;;;;;;5143694;27;20120;-74
2023/09/05 04:39:57;;;;;;;1.02;0.95;;;11.50;99.90;;;;;;5143547;27;20056;-74
2023/09/05 04:42:25;;;;;;;1.17;1.00;;;11.40;99.90;;;;;;5151091;27;20043;-74
2023/09/05 04:44:51;;;;;;;1.10;0.85;;;11.50;99.90;;;;;;5146900;27;20137;-74
2023/09/05 04:47:25;;;;;;;1.00;0.73;;;11.40;99.90;;;;;;5145831;27;20051;-74
2023/09/05 04:49:52;;;;;;;1.55;1.08;;;11.40;99.90;;;;;;5143757;27;20070;-74
2023/09/05 04:52:20;;;;;;;0.05;0.05;;;11.40;99.90;;;;;;5148656;27;20378;-74
2023/09/05 04:54:46;;;;;;;1.15;1.02;;;11.30;99.90;;;;;;5155548;27;20031;-74
2023/09/05 04:57:16;;;;;;;1.23;1.08;;;11.40;99.90;;;;;;5146908;27;20434;-74
2023/09/05 04:59:47;;;;;;;0.40;0.35;;;11.40;99.90;;;;;;5146604;27;20043;-74
2023/09/05 05:02:16;;;;;;;0.70;0.60;;;11.80;99.90;;;;;;5146803;27;20478;-74
2023/09/05 05:04:45;;;;;;;0.10;0.10;;;11.50;99.90;;;;;;5155748;27;20078;-74
2023/09/05 05:07:11;;;;;;;0.82;0.82;;;11.50;99.90;;;;;;5146967;27;20434;-74
2023/09/05 05:09:39;;;;;;;1.00;0.98;;;11.50;99.90;;;;;;5154718;27;20113;-74
2023/09/05 05:12:05;;;;;;;1.88;1.33;;;11.60;99.90;;;;;;5154821;27;20083;-74
2023/09/05 05:14:31;;;;;;;0.25;0.25;;;11.50;99.90;;;;;;5147422;27;20092;-75
2023/09/05 05:16:57;;;;;;;0.47;0.47;;;11.50;99.90;;;;;;5144175;27;20498;-75
2023/09/05 05:19:23;;;;;;;0.38;0.38;;;11.50;99.90;;;;;;5146933;27;20486;-74
2023/09/05 05:21:50;;;;;;;1.95;1.30;;;11.60;99.90;;;;;;5144327;27;20034;-74
2023/09/05 05:24:15;;;;;;;0.45;0.35;;;11.60;99.90;;;;;;5151796;27;20502;-74
2023/09/05 05:26:42;;;;;;;0.75;0.73;;;11.70;99.90;;;;;;5143567;27;20050;-74
2023/09/05 05:29:08;;;;;;;0.43;0.43;;;11.90;99.90;;;;;;5151352;27;20090;-74
2023/09/05 05:31:34;;;;;;;1.60;1.33;;;11.70;99.90;;;;;;5153115;27;20031;-74
2023/09/05 05:34:00;;;;;;;0.90;0.68;;;11.80;99.90;;;;;;5159363;27;20491;-74
2023/09/05 05:36:26;;;;;;;1.60;0.85;;;11.90;99.90;;;;;;5146399;27;20083;-74
2023/09/05 05:38:52;;;;;;;0.50;0.50;;;11.90;99.90;;;;;;5146848;27;20042;-74
2023/09/05 05:41:18;;;;;;;18.27;2.13;;;11.90;99.90;;;;;;5148707;27;20508;-74
2023/09/05 05:43:44;;;;;;;0.85;0.70;;;12.00;99.90;;;;;;5150466;27;20058;-74
2023/09/05 05:46:10;;;;;;;0.80;0.80;;;12.10;99.90;;;;;;5150565;27;20049;-74
2023/09/05 05:48:36;;;;;;;0.32;0.32;;;12.10;99.90;;;;;;5150356;27;20062;-74
2023/09/05 05:51:02;;;;;;;1.08;0.95;;;12.20;99.90;;;;;;5150078;27;20493;-74
2023/09/05 05:53:28;;;;;;;18.75;1.52;;;12.20;99.90;;;;;;5147904;27;20041;-74
2023/09/05 05:55:54;;;;;;;0.85;0.75;;;12.30;99.90;;;;;;5144536;27;20027;-74
2023/09/05 05:58:20;;;;;;;2.15;1.38;;;12.30;99.90;;;;;;5149843;27;20087;-74
2023/09/05 06:00:51;;;;;;;0.60;0.60;;;12.40;99.90;;;;;;5146551;27;20046;-74
2023/09/05 06:03:21;;;;;;;0.80;0.60;;;12.40;99.90;;;;;;5146416;27;20057;-74
2023/09/05 06:05:48;;;;;;;18.85;1.67;;;12.50;99.90;;;;;;5148122;27;20047;-74
2023/09/05 06:08:14;;;;;;;0.63;0.45;;;12.50;99.90;;;;;;5148648;27;20370;-74
2023/09/05 06:10:40;;;;;;;0.73;0.73;;;12.60;99.90;;;;;;5147886;27;20031;-74
2023/09/05 06:13:06;;;;;;;1.08;0.68;;;12.70;99.90;;;;;;5145115;27;20094;-74
2023/09/05 06:15:32;;;;;;;1.05;0.50;;;13.10;99.90;;;;;;5145486;27;20083;-74
2023/09/05 06:18:00;;;;;;;0.98;0.93;;;13.70;99.90;;;;;;5147807;27;20039;-74
2023/09/05 06:20:25;;;;;;;1.35;1.20;;;14.30;99.90;;;;;;5148367;27;20084;-74
2023/09/05 06:22:51;;;;;;;1.42;1.20;;;14.70;99.90;;;;;;5146868;27;20047;-74
2023/09/05 06:25:17;;;;;;;0.50;0.47;;;15.30;99.90;;;;;;5145317;27;20039;-74
2023/09/05 06:27:43;;;;;;;0.40;0.40;;;15.50;99.90;;;;;;5144997;27;20045;-73
2023/09/05 06:30:13;;;;;;;2.10;0.85;;;16.10;99.90;;;;;;5147360;27;20039;-73
2023/09/05 06:32:39;;;;;;;1.75;0.73;;;16.50;99.90;;;;;;5140643;27;20040;-73
2023/09/05 06:35:05;;;;;;;0.47;0.28;;;16.80;99.90;;;;;;5144635;27;20450;-73
2023/09/05 06:37:33;;;;;;;0.75;0.63;;;17.40;99.90;;;;;;5144431;27;20039;-73
2023/09/05 06:40:00;;;;;;;0.52;0.50;;;17.80;99.90;;;;;;5144760;27;20092;-73
2023/09/05 06:42:25;;;;;;;0.35;0.35;;;18.20;99.90;;;;;;5145994;27;20489;-73
2023/09/05 06:44:51;;;;;;;0.57;0.52;;;18.40;66.10;;;;;;5147923;27;20045;-73
2023/09/05 06:47:17;;;;;;;0.22;0.22;;;18.60;1.00;;;;;;5146788;27;20035;-74
2023/09/05 06:49:43;;;;;;;1.08;0.88;;;19.20;99.90;;;;;;5144485;27;20038;-73
2023/09/05 06:53:22;;;;;;;0.20;0.20;;;19.40;99.90;;;;;;5140634;27;20756;-73
2023/09/05 06:55:48;;;;;;;0.50;0.47;;;19.50;99.90;;;;;;5140479;27;20047;-73
2023/09/05 06:58:14;;;;;;;0.35;0.35;;;20.30;99.90;;;;;;5140113;27;20097;-73
2023/09/05 07:00:40;;;;;;;0.52;0.30;;;20.80;99.90;;;;;;5137403;27;20047;-73
2023/09/05 07:03:05;;;;;;;0.40;0.40;;;21.30;99.90;;;;;;5136637;27;20122;-73
2023/09/05 07:05:31;;;;;;;1.70;0.85;;;21.10;99.90;;;;;;5137076;27;20044;-73
2023/09/05 07:07:57;;;;;;;0.98;0.35;;;21.50;99.90;;;;;;5139621;27;20085;-73
2023/09/05 07:10:22;;;;;;;3.33;1.38;;;21.90;91.30;;;;;;5139823;27;20085;-73
2023/09/05 07:12:48;;;;;;;1.30;1.10;;;22.60;99.90;;;;;;5137108;27;20039;-73
2023/09/05 07:15:14;;;;;;;3.05;1.45;;;22.80;99.90;;;;;;5136525;27;20093;-73
2023/09/05 07:17:39;;;;;;;0.32;0.32;;;22.70;99.90;;;;;;5136262;27;20571;-73
2023/09/05 07:20:06;;;;;;;0.20;0.20;;;22.30;99.90;;;;;;5139570;27;20532;-73
2023/09/05 07:22:31;;;;;;;0.63;0.63;;;21.70;99.90;;;;;;5139208;27;20047;-73
2023/09/05 07:24:57;;;;;;;0.40;0.40;;;20.80;99.90;;;;;;5138056;27;20057;-73
2023/09/05 07:27:22;;;;;;;0.57;0.50;;;20.00;99.90;;;;;;5135841;27;20431;-73
2023/09/05 07:29:48;;;;;;;0.52;0.52;;;19.40;99.90;;;;;;5136124;27;20074;-73
2023/09/05 07:32:14;;;;;;;1.17;1.00;;;18.90;1.00;;;;;;5138516;27;20086;-73
2023/09/05 07:34:40;;;;;;;2.38;0.95;;;18.80;99.90;;;;;;5139198;27;20487;-73
2023/09/05 07:37:05;;;;;;;0.82;0.65;;;18.40;1.00;;;;;;5137910;27;20783;-73
2023/09/05 07:39:31;;;;;;;1.05;0.52;;;18.40;99.90;;;;;;5135852;27;20046;-73
2023/09/05 07:41:56;;;;;;;0.15;0.15;;;18.30;99.90;;;;;;5137493;27;20042;-73
2023/09/05 07:44:22;;;;;;;0.47;0.47;;;18.30;99.90;;;;;;5140918;27;20048;-73
2023/09/05 07:46:48;;;;;;;0.32;0.32;;;18.30;99.90;;;;;;5142224;27;20046;-73
2023/09/05 07:49:15;;;;;;;0.30;0.30;;;18.40;1.00;;;;;;5141201;27;20031;-73
2023/09/05 07:51:41;;;;;;;1.00;0.70;;;18.50;1.00;;;;;;5138284;27;20054;-73
2023/09/05 07:54:07;;;;;;;0.75;0.73;;;18.80;99.90;;;;;;5137511;27;20043;-73
2023/09/05 07:56:33;;;;;;;1.67;0.95;;;19.60;1.00;;;;;;5138640;27;20075;-73
2023/09/05 07:58:59;;;;;;;1.48;0.85;;;20.70;1.00;;;;;;5139732;27;20126;-73
2023/09/05 08:01:25;;;;;;;0.38;0.32;;;21.90;99.90;;;;;;5139845;27;20035;-73
2023/09/05 08:03:52;;;;;;;0.60;0.52;;;22.90;19.90;;;;;;5128284;27;20043;-73
2023/09/05 08:06:17;;;;;;;0.20;0.20;;;24.30;99.90;;;;;;5124241;27;20054;-74
2023/09/05 08:08:43;;;;;;;0.47;0.40;;;25.10;99.90;;;;;;5126329;27;20467;-74
2023/09/05 08:11:08;;;;;;;1.48;0.85;;;25.20;99.90;;;;;;5127653;27;20539;-74
2023/09/05 08:13:34;;;;;;;1.33;0.85;;;25.10;55.40;;;;;;5127802;27;20430;-73
2023/09/05 08:16:01;;;;;;;0.45;0.40;;;25.50;52.60;;;;;;5124625;27;20043;-74
2023/09/05 08:18:28;;;;;;;4.65;1.13;;;26.10;99.90;;;;;;5124487;27;20092;-74
2023/09/05 08:20:56;;;;;;;0.10;0.10;;;26.10;1.00;;;;;;5125896;27;20119;-74
2023/09/05 08:23:22;;;;;;;1.05;0.45;;;26.50;99.90;;;;;;5127359;27;20511;-74
2023/09/05 08:25:51;;;;;;;1.20;0.90;;;26.90;64.30;;;;;;5127237;27;20042;-74
2023/09/05 08:28:18;;;;;;;0.35;0.35;;;26.10;8.30;;;;;;5124252;27;20050;-74
2023/09/05 08:30:44;;;;;;;1.38;0.88;;;26.30;1.00;;;;;;5124077;27;20044;-74
2023/09/05 08:33:10;;;;;;;0.35;0.35;;;26.70;10.90;;;;;;5126231;27;20039;-74
2023/09/05 08:35:37;;;;;;;1.10;0.77;;;26.80;1.00;;;;;;5127511;27;20043;-74
2023/09/05 08:38:04;;;;;;;1.05;0.60;;;26.50;1.00;;;;;;5126814;27;20120;-74
2023/09/05 08:40:33;;;;;;;1.77;0.80;;;27.10;1.00;;;;;;5124438;27;20039;-74
2023/09/05 08:42:59;;;;;;;0.90;0.63;;;27.20;1.00;;;;;;5123915;27;20048;-74
2023/09/05 08:45:28;;;;;;;0.30;0.30;;;27.10;1.00;;;;;;5126465;27;20032;-74
2023/09/05 08:47:54;;;;;;;0.20;0.20;;;27.30;1.00;;;;;;5127185;27;20053;-74
2023/09/05 08:50:20;;;;;;;0.25;0.25;;;28.30;1.00;;;;;;5125721;27;20118;-74
2023/09/05 08:52:47;;;;;;;2.03;1.17;;;27.90;1.00;;;;;;5123211;27;20051;-74
2023/09/05 08:55:14;;;;;;;0.63;0.63;;;27.50;1.00;;;;;;5123812;27;20082;-74
2023/09/05 08:57:45;;;;;;;1.05;0.55;;;27.60;1.00;;;;;;5126827;27;20042;-75
2023/09/05 09:00:11;;;;;;;0.77;0.40;;;27.50;1.00;;;;;;5127276;27;20087;-74
2023/09/05 09:02:37;;;;;;;0.65;0.40;;;27.80;1.00;;;;;;5124799;27;20511;-72
2023/09/05 09:05:03;;;;;;;1.08;0.55;;;28.40;1.00;;;;;;5123551;27;20036;-73
2023/09/05 09:07:29;;;;;;;11.30;1.02;;;28.40;1.00;;;;;;5123268;27;20036;-74
2023/09/05 09:09:56;;;;;;;1.65;0.55;;;28.60;1.00;;;;;;5126831;27;20039;-73
2023/09/05 09:12:29;;;;;;;3.00;0.60;;;28.90;1.00;;;;;;5126379;27;20036;-73
2023/09/05 09:14:54;;;;;;;1.55;0.88;;;29.40;1.00;;;;;;5123006;27;20419;-73
2023/09/05 09:17:22;;;;;;;2.30;0.50;;;28.70;1.00;;;;;;5123143;27;20123;-73
2023/09/05 09:19:48;;;;;;;0.30;0.30;;;29.50;1.00;;;;;;5124049;27;20039;-73
2023/09/05 09:22:13;;;;;;;0.63;0.35;;;29.40;1.00;;;;;;5126538;27;20047;-74
2023/09/05 09:24:39;;;;;;;0.82;0.52;;;28.80;1.00;;;;;;5126594;27;20035;-73
2023/09/05 09:27:06;;;;;;;0.30;0.15;;;29.00;99.90;;;;;;5122513;27;20047;-73
2023/09/05 09:29:32;;;;;;;0.20;0.20;;;29.50;99.90;;;;;;5123260;27;20039;-73
2023/09/05 09:32:03;;;;;;;0.60;0.57;;;29.40;99.90;;;;;;5123370;27;20044;-73
2023/09/05 09:34:30;;;;;;;0.45;0.45;;;29.00;99.90;;;;;;5125873;27;20038;-73
2023/09/05 09:36:56;;;;;;;0.70;0.40;;;29.00;99.90;;;;;;5125763;27;20522;-73
2023/09/05 09:39:21;;;;;;;2.00;0.60;;;29.10;99.90;;;;;;5123227;27;20032;-73
2023/09/05 09:41:47;;;;;;;0.20;0.20;;;28.80;99.90;;;;;;5122975;27;20067;-73
2023/09/05 09:44:30;;;;;;;0.50;0.47;;;29.50;1.00;;;;;;5123823;27;20043;-73
2023/09/05 09:46:58;;;;;;;2.58;1.05;;;29.50;99.90;;;;;;5125851;27;20441;-73
2023/09/05 09:49:26;;;;;;;0.65;0.50;;;28.90;99.90;;;;;;5123964;27;20101;-73
2023/09/05 09:51:54;;;;;;;0.45;0.28;;;29.00;99.90;;;;;;5122172;27;20048;-73
2023/09/05 09:54:29;;;;;;;0.10;0.10;;;28.50;99.90;;;;;;5122929;27;20055;-73
2023/09/05 09:56:59;;;;;;;0.30;0.20;;;28.30;99.90;;;;;;5125698;27;20039;-73
2023/09/05 09:59:26;;;;;;;0.30;0.30;;;27.60;99.90;;;;;;5124853;27;20043;-73
2023/09/05 10:01:55;;;;;;;1.08;0.55;;;27.10;99.90;;;;;;5122647;27;20040;-73
2023/09/05 10:04:23;;;;;;;1.08;0.73;;;27.30;99.90;;;;;;5122561;27;20035;-73
2023/09/05 10:06:50;;;;;;;0.73;0.30;;;27.50;99.90;;;;;;5125281;27;20122;-73
2023/09/05 10:09:17;;;;;;;0.00;0.00;;;27.40;99.90;;;;;;5125331;27;20480;-73
2023/09/05 10:11:43;;;;;;;0.45;0.30;;;27.20;99.90;;;;;;5123560;27;20042;-73
2023/09/05 10:14:11;;;;;;;0.88;0.40;;;27.40;99.90;;;;;;5122022;27;20035;-73
2023/09/05 10:16:39;;;;;;;0.30;0.20;;;27.90;1.00;;;;;;5122203;27;20086;-73
2023/09/05 10:19:07;;;;;;;1.08;0.50;;;28.10;1.00;;;;;;5125402;27;20412;-74
2023/09/05 10:21:34;;;;;;;1.00;0.65;;;28.40;99.90;;;;;;5125458;27;20043;-73
2023/09/05 10:24:00;;;;;;;0.03;0.00;;;28.00;99.90;;;;;;5123409;27;20365;-73
2023/09/05 10:26:27;;;;;;;0.73;0.63;;;28.20;99.90;;;;;;5121715;27;20495;-73
2023/09/05 10:28:56;;;;;;;1.05;0.50;;;28.30;99.90;;;;;;5122569;27;20039;-73
2023/09/05 10:31:24;;;;;;;0.43;0.32;;;28.50;99.90;;;;;;5125234;27;20043;-73
2023/09/05 10:33:50;;;;;;;0.00;0.00;;;28.40;99.90;;;;;;5125204;27;20035;-73
2023/09/05 10:36:54;;;;;;;3.10;1.27;;;28.40;99.90;;;;;;5122260;27;20043;-73
2023/09/05 10:39:25;;;;;;;1.08;0.57;;;28.50;99.90;;;;;;5061384;28;20048;-73
2023/09/05 10:41:51;;;;;;;0.28;0.17;;;28.80;99.90;;;;;;5061853;28;20102;-73
2023/09/05 10:44:17;;;;;;;0.88;0.35;;;29.00;99.90;;;;;;5091891;27;20051;-73
2023/09/05 10:46:42;;;;;;;0.20;0.20;;;29.20;1.00;;;;;;5121979;27;20487;-73
2023/09/05 10:49:14;;;;;;;2.00;0.45;;;29.10;99.90;;;;;;5121789;27;20076;-73
2023/09/05 10:52:14;;;;;;;0.68;0.40;;;29.40;99.90;;;;;;5113431;28;20611;-73
2023/09/05 10:54:40;;;;;;;0.65;0.45;;;29.30;99.90;;;;;;5105076;28;20385;-73
2023/09/05 10:57:33;;;;;;;0.60;0.20;;;29.40;99.90;;;;;;5121429;28;20039;-73
2023/09/05 10:59:58;;;;;;;1.20;0.43;;;29.20;99.90;;;;;;5115331;28;20088;-74
2023/09/05 11:02:25;;;;;;;3.28;0.52;;;29.60;99.90;;;;;;5121941;28;20047;-74
2023/09/05 11:04:53;;;;;;;0.65;0.40;;;29.50;99.90;;;;;;5124836;27;20038;-74
2023/09/05 11:07:21;;;;;;;0.20;0.20;;;29.50;99.90;;;;;;5124652;28;20035;-74
2023/09/05 11:09:51;;;;;;;0.35;0.32;;;29.30;99.90;;;;;;5122169;27;20133;-74
2023/09/05 11:12:18;;;;;;;0.08;0.08;;;29.50;99.90;;;;;;5121255;28;20115;-74
2023/09/05 11:14:44;;;;;;;1.42;0.88;;;29.30;99.90;;;;;;5123132;28;20063;-74
2023/09/05 11:17:15;;;;;;;1.02;0.30;;;29.30;99.90;;;;;;5124931;27;20031;-74
2023/09/05 11:19:45;;;;;;;0.35;0.22;;;29.30;99.90;;;;;;5124672;27;20039;-74
2023/09/05 11:22:21;;;;;;;2.55;0.43;;;29.50;99.90;;;;;;5121305;28;20381;-74
2023/09/05 11:24:58;;;;;;;0.38;0.30;;;29.80;99.90;;;;;;5121980;28;20122;-74
2023/09/05 11:27:29;;;;;;;0.10;0.10;;;30.00;99.90;;;;;;5124710;27;20449;-74
2023/09/05 11:29:58;;;;;;;0.05;0.05;;;30.10;99.90;;;;;;5123704;27;20039;-74
2023/09/05 11:32:33;;;;;;;0.75;0.38;;;30.40;99.90;;;;;;5121263;28;20032;-74
2023/09/05 11:34:59;;;;;;;0.05;0.03;;;30.50;99.90;;;;;;5122025;28;20108;-74
2023/09/05 11:37:25;;;;;;;0.60;0.15;;;30.40;99.90;;;;;;5124458;27;20032;-74
2023/09/05 11:39:51;;;;;;;0.47;0.38;;;30.90;99.90;;;;;;5128059;27;20035;-74
2023/09/05 11:42:32;;;;;;;0.45;0.20;;;31.40;99.90;;;;;;5125884;27;20491;-74
2023/09/05 11:44:58;;;;;;;2.53;0.32;;;31.50;99.90;;;;;;5125253;27;20044;-74
2023/09/05 11:47:26;;;;;;;0.00;0.00;;;31.10;99.90;;;;;;5127308;27;20488;-74
2023/09/05 11:49:53;;;;;;;0.00;0.00;;;31.50;99.90;;;;;;5128248;27;20039;-74
2023/09/05 11:52:20;;;;;;;0.63;0.35;;;32.30;99.90;;;;;;5126714;27;20126;-74
2023/09/05 11:54:50;;;;;;;0.00;0.00;;;32.60;99.90;;;;;;5125209;27;20408;-75
2023/09/05 11:57:20;;;;;;;0.38;0.30;;;32.00;99.90;;;;;;5124953;27;20042;-74
2023/09/05 11:59:47;;;;;;;0.40;0.30;;;32.30;99.90;;;;;;5116906;27;20039;-74
2023/09/05 12:02:18;;;;;;;0.68;0.50;;;32.50;99.90;;;;;;5124755;27;20118;-74
2023/09/05 12:04:48;;;;;;;0.20;0.20;;;32.30;99.90;;;;;;5127855;27;20412;-73
2023/09/05 12:07:14;;;;;;;0.00;0.00;;;32.10;99.90;;;;;;5128054;27;20173;-73
2023/09/05 12:09:39;;;;;;;0.10;0.00;;;32.10;99.90;;;;;;5126150;27;20177;-73
2023/09/05 12:12:13;;;;;;;0.13;0.13;;;32.20;99.90;;;;;;5124236;27;20032;-73
2023/09/05 12:14:49;;;;;;;0.25;0.20;;;32.50;99.90;;;;;;5124995;27;20043;-73
2023/09/05 12:17:19;;;;;;;0.30;0.25;;;32.90;99.90;;;;;;5127694;27;20051;-73
2023/09/05 12:19:47;;;;;;;0.10;0.10;;;33.50;99.90;;;;;;5127169;27;20140;-73
2023/09/05 12:22:27;;;;;;;0.10;0.03;;;33.00;99.90;;;;;;5124366;27;20043;-73
2023/09/05 12:25:14;;;;;;;1.85;0.52;;;33.30;99.90;;;;;;5125580;27;20401;-73
2023/09/05 12:27:42;;;;;;;0.25;0.20;;;32.90;99.90;;;;;;5127713;27;20046;-73
2023/09/05 12:30:09;;;;;;;0.10;0.10;;;33.30;99.90;;;;;;5124693;27;20042;-73
2023/09/05 12:32:35;;;;;;;0.50;0.50;;;33.70;99.90;;;;;;5124007;27;20043;-73
2023/09/05 12:35:01;;;;;;;0.17;0.15;;;33.80;99.90;;;;;;5124807;27;20484;-73
2023/09/05 12:37:27;;;;;;;0.57;0.38;;;33.90;99.90;;;;;;5127214;27;20035;-73
2023/09/05 12:39:56;;;;;;;0.17;0.17;;;32.70;99.90;;;;;;5127203;27;20041;-73
2023/09/05 12:42:23;;;;;;;0.22;0.20;;;33.00;99.90;;;;;;5124375;27;20055;-73
2023/09/05 12:44:48;;;;;;;0.20;0.10;;;33.60;99.90;;;;;;5124202;27;20431;-73
2023/09/05 12:47:14;;;;;;;0.35;0.10;;;33.90;99.90;;;;;;5125015;27;20048;-73
2023/09/05 12:49:42;;;;;;;0.22;0.22;;;33.90;99.90;;;;;;5126652;27;20177;-73